sensor_id;sensor_type;location;lat;lon;timestamp;temperature;humidity
11963;DHT22;62678;52.130;5.584;2023-08-21T00:01:59;19.00;99.90
11963;DHT22;62678;52.130;5.584;2023-08-21T00:04:26;18.90;99.90
11963;DHT22;62678;52.130;5.584;2023-08-21T00:06:53;18.90;99.90
11963;DHT22;62678;52.130;5.584;2023-08-21T00:09:21;18.80;99.90
11963;DHT22;62678;52.130;5.584;2023-08-21T00:11:48;18.80;99.90
11963;DHT22;62678;52.130;5.584;2023-08-21T00:14:17;18.80;99.90
11963;DHT22;62678;52.130;5.584;2023-08-21T00:16:43;18.70;99.90
11963;DHT22;62678;52.130;5.584;2023-08-21T00:19:10;18.70;99.90
11963;DHT22;62678;52.130;5.584;2023-08-21T00:21:38;18.70;99.90
11963;DHT22;62678;52.130;5.584;2023-08-21T00:24:05;18.70;99.90
11963;DHT22;62678;52.130;5.584;2023-08-21T00:26:32;18.80;99.90
11963;DHT22;62678;52.130;5.584;2023-08-21T00:28:59;18.90;99.90
11963;DHT22;62678;52.130;5.584;2023-08-21T00:31:27;18.90;99.90
11963;DHT22;62678;52.130;5.584;2023-08-21T00:33:55;18.80;99.90
11963;DHT22;62678;52.130;5.584;2023-08-21T00:36:22;18.90;99.90
11963;DHT22;62678;52.130;5.584;2023-08-21T00:38:49;18.80;99.90
11963;DHT22;62678;52.130;5.584;2023-08-21T00:41:16;18.80;99.90
11963;DHT22;62678;52.130;5.584;2023-08-21T00:43:42;18.80;99.90
11963;DHT22;62678;52.130;5.584;2023-08-21T00:46:10;18.80;99.90
11963;DHT22;62678;52.130;5.584;2023-08-21T00:48:38;18.70;99.90
11963;DHT22;62678;52.130;5.584;2023-08-21T00:51:06;18.80;99.90
11963;DHT22;62678;52.130;5.584;2023-08-21T00:53:33;18.80;99.90
11963;DHT22;62678;52.130;5.584;2023-08-21T00:56:01;18.80;99.90
11963;DHT22;62678;52.130;5.584;2023-08-21T00:58:28;18.90;99.90
11963;DHT22;62678;52.130;5.584;2023-08-21T01:00:55;18.90;99.90
11963;DHT22;62678;52.130;5.584;2023-08-21T01:03:24;18.90;99.90
11963;DHT22;62678;52.130;5.584;2023-08-21T01:05:52;19.00;99.90
11963;DHT22;62678;52.130;5.584;2023-08-21T01:08:28;18.90;99.90
11963;DHT22;62678;52.130;5.584;2023-08-21T01:11:02;18.90;99.90
11963;DHT22;62678;52.130;5.584;2023-08-21T01:13:42;18.90;99.90
11963;DHT22;62678;52.130;5.584;2023-08-21T01:16:11;18.90;99.90
11963;DHT22;62678;52.130;5.584;2023-08-21T01:18:41;18.80;99.90
11963;DHT22;62678;52.130;5.584;2023-08-21T01:21:10;18.80;99.90
11963;DHT22;62678;52.130;5.584;2023-08-21T01:23:41;18.80;99.90
11963;DHT22;62678;52.130;5.584;2023-08-21T01:26:09;18.70;99.90
11963;DHT22;62678;52.130;5.584;2023-08-21T01:28:36;18.70;99.90
11963;DHT22;62678;52.130;5.584;2023-08-21T01:31:08;18.70;99.90
11963;DHT22;62678;52.130;5.584;2023-08-21T01:33:42;18.70;99.90
11963;DHT22;62678;52.130;5.584;2023-08-21T01:36:10;18.80;99.90
11963;DHT22;62678;52.130;5.584;2023-08-21T01:38:38;18.80;99.90
11963;DHT22;62678;52.130;5.584;2023-08-21T01:41:06;18.80;99.90
11963;DHT22;62678;52.130;5.584;2023-08-21T01:43:33;18.80;99.90
11963;DHT22;62678;52.130;5.584;2023-08-21T01:46:01;18.80;99.90
11963;DHT22;62678;52.130;5.584;2023-08-21T01:48:28;18.90;99.90
11963;DHT22;62678;52.130;5.584;2023-08-21T01:50:55;18.90;99.90
11963;DHT22;62678;52.130;5.584;2023-08-21T01:53:22;18.90;99.90
11963;DHT22;62678;52.130;5.584;2023-08-21T01:55:50;18.90;99.90
11963;DHT22;62678;52.130;5.584;2023-08-21T01:58:17;18.90;99.90
11963;DHT22;62678;52.130;5.584;2023-08-21T02:00:46;18.90;99.90
11963;DHT22;62678;52.130;5.584;2023-08-21T02:03:13;19.00;99.90
11963;DHT22;62678;52.130;5.584;2023-08-21T02:05:40;19.00;99.90
11963;DHT22;62678;52.130;5.584;2023-08-21T02:08:13;19.00;99.90
11963;DHT22;62678;52.130;5.584;2023-08-21T02:10:51;18.90;99.90
11963;DHT22;62678;52.130;5.584;2023-08-21T02:13:19;18.90;99.90
11963;DHT22;62678;52.130;5.584;2023-08-21T02:15:46;18.80;99.90
11963;DHT22;62678;52.130;5.584;2023-08-21T02:18:13;18.80;99.90
11963;DHT22;62678;52.130;5.584;2023-08-21T02:20:40;18.90;99.90
11963;DHT22;62678;52.130;5.584;2023-08-21T02:23:07;18.90;99.90
11963;DHT22;62678;52.130;5.584;2023-08-21T02:25:34;18.90;99.90
11963;DHT22;62678;52.130;5.584;2023-08-21T02:28:03;18.90;99.90
11963;DHT22;62678;52.130;5.584;2023-08-21T02:30:31;18.90;99.90
11963;DHT22;62678;52.130;5.584;2023-08-21T02:32:58;18.90;99.90
11963;DHT22;62678;52.130;5.584;2023-08-21T02:35:25;18.90;99.90
11963;DHT22;62678;52.130;5.584;2023-08-21T02:37:52;18.90;99.90
11963;DHT22;62678;52.130;5.584;2023-08-21T02:40:19;18.90;99.90
11963;DHT22;62678;52.130;5.584;2023-08-21T02:42:46;18.90;99.90
11963;DHT22;62678;52.130;5.584;2023-08-21T02:45:14;18.90;99.90
11963;DHT22;62678;52.130;5.584;2023-08-21T02:47:42;18.90;99.90
11963;DHT22;62678;52.130;5.584;2023-08-21T02:50:09;18.90;99.90
11963;DHT22;62678;52.130;5.584;2023-08-21T02:52:37;18.80;99.90
11963;DHT22;62678;52.130;5.584;2023-08-21T02:55:05;18.80;99.90
11963;DHT22;62678;52.130;5.584;2023-08-21T02:57:32;18.80;99.90
11963;DHT22;62678;52.130;5.584;2023-08-21T02:59:59;18.90;99.90
11963;DHT22;62678;52.130;5.584;2023-08-21T03:02:27;18.90;99.90
11963;DHT22;62678;52.130;5.584;2023-08-21T03:04:54;19.00;99.90
11963;DHT22;62678;52.130;5.584;2023-08-21T03:07:21;19.00;99.90
11963;DHT22;62678;52.130;5.584;2023-08-21T03:09:49;18.90;99.90
11963;DHT22;62678;52.130;5.584;2023-08-21T03:12:17;18.90;99.90
11963;DHT22;62678;52.130;5.584;2023-08-21T03:14:45;18.90;99.90
11963;DHT22;62678;52.130;5.584;2023-08-21T03:17:12;18.90;99.90
11963;DHT22;62678;52.130;5.584;2023-08-21T03:19:40;18.90;99.90
11963;DHT22;62678;52.130;5.584;2023-08-21T03:22:07;18.80;99.90
11963;DHT22;62678;52.130;5.584;2023-08-21T03:24:34;18.80;99.90
11963;DHT22;62678;52.130;5.584;2023-08-21T03:27:01;18.80;99.90
11963;DHT22;62678;52.130;5.584;2023-08-21T03:29:28;18.70;99.90
11963;DHT22;62678;52.130;5.584;2023-08-21T03:31:55;18.70;99.90
11963;DHT22;62678;52.130;5.584;2023-08-21T03:34:22;18.60;99.90
11963;DHT22;62678;52.130;5.584;2023-08-21T03:36:51;18.60;99.90
11963;DHT22;62678;52.130;5.584;2023-08-21T03:39:18;18.60;99.90
11963;DHT22;62678;52.130;5.584;2023-08-21T03:41:45;18.50;99.90
11963;DHT22;62678;52.130;5.584;2023-08-21T03:44:12;18.40;99.90
11963;DHT22;62678;52.130;5.584;2023-08-21T03:46:39;18.30;99.90
11963;DHT22;62678;52.130;5.584;2023-08-21T03:49:06;18.30;99.90
11963;DHT22;62678;52.130;5.584;2023-08-21T03:51:33;18.20;99.90
11963;DHT22;62678;52.130;5.584;2023-08-21T03:54:01;18.20;99.90
11963;DHT22;62678;52.130;5.584;2023-08-21T03:56:28;18.10;99.90
11963;DHT22;62678;52.130;5.584;2023-08-21T03:58:55;18.00;99.90
11963;DHT22;62678;52.130;5.584;2023-08-21T04:01:22;17.90;99.90
11963;DHT22;62678;52.130;5.584;2023-08-21T04:03:49;17.90;99.90
11963;DHT22;62678;52.130;5.584;2023-08-21T04:06:16;17.90;99.90
11963;DHT22;62678;52.130;5.584;2023-08-21T04:08:43;17.90;99.90
11963;DHT22;62678;52.130;5.584;2023-08-21T04:11:11;17.90;99.90
11963;DHT22;62678;52.130;5.584;2023-08-21T04:13:38;17.90;99.90
11963;DHT22;62678;52.130;5.584;2023-08-21T04:16:05;18.00;99.90
11963;DHT22;62678;52.130;5.584;2023-08-21T04:18:33;18.00;99.90
11963;DHT22;62678;52.130;5.584;2023-08-21T04:21:02;18.00;99.90
11963;DHT22;62678;52.130;5.584;2023-08-21T04:23:29;18.00;99.90
11963;DHT22;62678;52.130;5.584;2023-08-21T04:26:00;18.10;99.90
11963;DHT22;62678;52.130;5.584;2023-08-21T04:28:29;18.10;99.90
11963;DHT22;62678;52.130;5.584;2023-08-21T04:30:56;18.10;99.90
11963;DHT22;62678;52.130;5.584;2023-08-21T04:33:24;18.10;99.90
11963;DHT22;62678;52.130;5.584;2023-08-21T04:35:51;18.10;99.90
11963;DHT22;62678;52.130;5.584;2023-08-21T04:38:18;18.20;99.90
11963;DHT22;62678;52.130;5.584;2023-08-21T04:40:45;18.20;99.90
11963;DHT22;62678;52.130;5.584;2023-08-21T04:43:12;18.20;99.90
11963;DHT22;62678;52.130;5.584;2023-08-21T04:45:47;18.20;99.90
11963;DHT22;62678;52.130;5.584;2023-08-21T04:48:15;18.20;99.90
11963;DHT22;62678;52.130;5.584;2023-08-21T04:50:42;18.10;99.90
11963;DHT22;62678;52.130;5.584;2023-08-21T04:53:09;18.20;99.90
11963;DHT22;62678;52.130;5.584;2023-08-21T04:55:36;18.20;99.90
11963;DHT22;62678;52.130;5.584;2023-08-21T04:58:05;18.30;99.90
11963;DHT22;62678;52.130;5.584;2023-08-21T05:00:32;18.30;99.90
11963;DHT22;62678;52.130;5.584;2023-08-21T05:03:01;18.40;99.90
11963;DHT22;62678;52.130;5.584;2023-08-21T05:05:28;18.40;99.90
11963;DHT22;62678;52.130;5.584;2023-08-21T05:07:55;18.40;99.90
11963;DHT22;62678;52.130;5.584;2023-08-21T05:10:22;18.50;99.90
11963;DHT22;62678;52.130;5.584;2023-08-21T05:12:49;18.50;99.90
11963;DHT22;62678;52.130;5.584;2023-08-21T05:15:16;18.50;99.90
11963;DHT22;62678;52.130;5.584;2023-08-21T05:17:43;18.70;99.90
11963;DHT22;62678;52.130;5.584;2023-08-21T05:20:12;18.70;99.90
11963;DHT22;62678;52.130;5.584;2023-08-21T05:22:40;18.70;99.90
11963;DHT22;62678;52.130;5.584;2023-08-21T05:25:08;18.70;99.90
11963;DHT22;62678;52.130;5.584;2023-08-21T05:27:35;18.80;99.90
11963;DHT22;62678;52.130;5.584;2023-08-21T05:30:02;18.80;99.90
11963;DHT22;62678;52.130;5.584;2023-08-21T05:32:29;18.80;99.90
11963;DHT22;62678;52.130;5.584;2023-08-21T05:34:56;18.80;99.90
11963;DHT22;62678;52.130;5.584;2023-08-21T05:37:25;18.90;99.90
11963;DHT22;62678;52.130;5.584;2023-08-21T05:39:52;18.90;99.90
11963;DHT22;62678;52.130;5.584;2023-08-21T05:42:19;19.00;99.90
11963;DHT22;62678;52.130;5.584;2023-08-21T05:44:46;19.10;99.90
11963;DHT22;62678;52.130;5.584;2023-08-21T05:47:13;19.00;99.90
11963;DHT22;62678;52.130;5.584;2023-08-21T05:49:40;18.90;99.90
11963;DHT22;62678;52.130;5.584;2023-08-21T05:52:09;18.90;99.90
11963;DHT22;62678;52.130;5.584;2023-08-21T05:54:37;19.00;99.90
11963;DHT22;62678;52.130;5.584;2023-08-21T05:57:04;19.00;99.90
11963;DHT22;62678;52.130;5.584;2023-08-21T05:59:32;19.00;99.90
11963;DHT22;62678;52.130;5.584;2023-08-21T06:01:59;19.10;99.90
11963;DHT22;62678;52.130;5.584;2023-08-21T06:04:26;19.20;99.90
11963;DHT22;62678;52.130;5.584;2023-08-21T06:06:53;19.30;99.90
11963;DHT22;62678;52.130;5.584;2023-08-21T06:09:20;19.30;99.90
11963;DHT22;62678;52.130;5.584;2023-08-21T06:11:49;19.50;99.90
11963;DHT22;62678;52.130;5.584;2023-08-21T06:14:16;19.60;99.90
11963;DHT22;62678;52.130;5.584;2023-08-21T06:16:43;19.50;99.90
11963;DHT22;62678;52.130;5.584;2023-08-21T06:19:10;19.50;99.90
11963;DHT22;62678;52.130;5.584;2023-08-21T06:21:37;19.50;99.90
11963;DHT22;62678;52.130;5.584;2023-08-21T06:24:04;19.60;99.90
11963;DHT22;62678;52.130;5.584;2023-08-21T06:26:31;19.60;99.90
11963;DHT22;62678;52.130;5.584;2023-08-21T06:29:00;19.60;99.90
11963;DHT22;62678;52.130;5.584;2023-08-21T06:31:27;19.70;99.90
11963;DHT22;62678;52.130;5.584;2023-08-21T06:33:54;19.80;99.90
11963;DHT22;62678;52.130;5.584;2023-08-21T06:36:21;19.90;99.90
11963;DHT22;62678;52.130;5.584;2023-08-21T06:38:48;20.00;99.90
11963;DHT22;62678;52.130;5.584;2023-08-21T06:41:15;20.20;99.90
11963;DHT22;62678;52.130;5.584;2023-08-21T06:43:42;20.40;99.90
11963;DHT22;62678;52.130;5.584;2023-08-21T06:46:11;20.60;99.90
11963;DHT22;62678;52.130;5.584;2023-08-21T06:48:39;20.90;99.90
11963;DHT22;62678;52.130;5.584;2023-08-21T06:51:06;21.10;99.90
11963;DHT22;62678;52.130;5.584;2023-08-21T06:53:33;21.40;99.90
11963;DHT22;62678;52.130;5.584;2023-08-21T06:56:00;21.60;99.90
11963;DHT22;62678;52.130;5.584;2023-08-21T06:58:27;21.60;99.90
11963;DHT22;62678;52.130;5.584;2023-08-21T07:00:55;21.60;99.90
11963;DHT22;62678;52.130;5.584;2023-08-21T07:03:24;21.80;99.90
11963;DHT22;62678;52.130;5.584;2023-08-21T07:05:53;21.70;99.90
11963;DHT22;62678;52.130;5.584;2023-08-21T07:08:21;21.80;99.90
11963;DHT22;62678;52.130;5.584;2023-08-21T07:10:49;21.80;99.90
11963;DHT22;62678;52.130;5.584;2023-08-21T07:13:16;21.90;99.90
11963;DHT22;62678;52.130;5.584;2023-08-21T07:15:43;21.80;99.90
11963;DHT22;62678;52.130;5.584;2023-08-21T07:18:10;21.70;99.90
11963;DHT22;62678;52.130;5.584;2023-08-21T07:20:38;21.80;99.90
11963;DHT22;62678;52.130;5.584;2023-08-21T07:23:05;22.10;99.90
11963;DHT22;62678;52.130;5.584;2023-08-21T07:25:32;22.00;99.90
11963;DHT22;62678;52.130;5.584;2023-08-21T07:27:59;22.10;99.90
11963;DHT22;62678;52.130;5.584;2023-08-21T07:30:27;22.10;99.90
11963;DHT22;62678;52.130;5.584;2023-08-21T07:32:54;22.30;99.90
11963;DHT22;62678;52.130;5.584;2023-08-21T07:35:21;22.80;99.90
11963;DHT22;62678;52.130;5.584;2023-08-21T07:37:49;22.90;99.90
11963;DHT22;62678;52.130;5.584;2023-08-21T07:40:16;23.00;99.90
11963;DHT22;62678;52.130;5.584;2023-08-21T07:42:43;23.20;99.90
11963;DHT22;62678;52.130;5.584;2023-08-21T07:45:10;23.10;99.90
11963;DHT22;62678;52.130;5.584;2023-08-21T07:47:37;23.10;99.90
11963;DHT22;62678;52.130;5.584;2023-08-21T07:50:05;23.20;99.90
11963;DHT22;62678;52.130;5.584;2023-08-21T07:52:33;23.40;99.90
11963;DHT22;62678;52.130;5.584;2023-08-21T07:55:02;23.30;99.90
11963;DHT22;62678;52.130;5.584;2023-08-21T07:57:29;23.30;99.90
11963;DHT22;62678;52.130;5.584;2023-08-21T07:59:56;23.40;99.90
11963;DHT22;62678;52.130;5.584;2023-08-21T08:02:23;23.30;99.90
11963;DHT22;62678;52.130;5.584;2023-08-21T08:04:50;23.30;99.90
11963;DHT22;62678;52.130;5.584;2023-08-21T08:07:17;23.40;99.90
11963;DHT22;62678;52.130;5.584;2023-08-21T08:09:44;23.60;99.90
11963;DHT22;62678;52.130;5.584;2023-08-21T08:12:14;24.00;99.90
11963;DHT22;62678;52.130;5.584;2023-08-21T08:14:41;24.30;99.90
11963;DHT22;62678;52.130;5.584;2023-08-21T08:17:08;24.40;99.90
11963;DHT22;62678;52.130;5.584;2023-08-21T08:19:34;24.60;99.90
11963;DHT22;62678;52.130;5.584;2023-08-21T08:22:02;24.50;99.90
11963;DHT22;62678;52.130;5.584;2023-08-21T08:24:29;24.60;99.90
11963;DHT22;62678;52.130;5.584;2023-08-21T08:26:56;24.20;99.90
11963;DHT22;62678;52.130;5.584;2023-08-21T08:29:24;24.30;99.90
11963;DHT22;62678;52.130;5.584;2023-08-21T08:31:51;24.60;99.90
11963;DHT22;62678;52.130;5.584;2023-08-21T08:34:18;24.80;99.90
11963;DHT22;62678;52.130;5.584;2023-08-21T08:36:46;24.80;99.90
11963;DHT22;62678;52.130;5.584;2023-08-21T08:39:13;24.70;99.90
11963;DHT22;62678;52.130;5.584;2023-08-21T08:41:54;24.90;99.90
11963;DHT22;62678;52.130;5.584;2023-08-21T08:44:25;24.80;99.90
11963;DHT22;62678;52.130;5.584;2023-08-21T08:46:53;25.00;99.90
11963;DHT22;62678;52.130;5.584;2023-08-21T08:49:21;24.90;99.90
11963;DHT22;62678;52.130;5.584;2023-08-21T08:51:49;24.90;99.90
11963;DHT22;62678;52.130;5.584;2023-08-21T08:54:17;24.40;99.90
11963;DHT22;62678;52.130;5.584;2023-08-21T08:56:44;24.20;99.90
11963;DHT22;62678;52.130;5.584;2023-08-21T08:59:11;24.40;99.90
11963;DHT22;62678;52.130;5.584;2023-08-21T09:01:41;24.20;99.90
11963;DHT22;62678;52.130;5.584;2023-08-21T09:04:09;23.90;99.90
11963;DHT22;62678;52.130;5.584;2023-08-21T09:06:36;24.00;99.90
11963;DHT22;62678;52.130;5.584;2023-08-21T09:09:03;24.00;99.90
11963;DHT22;62678;52.130;5.584;2023-08-21T09:11:32;24.00;99.90
11963;DHT22;62678;52.130;5.584;2023-08-21T09:14:00;24.00;99.90
11963;DHT22;62678;52.130;5.584;2023-08-21T09:16:27;24.00;99.90
11963;DHT22;62678;52.130;5.584;2023-08-21T09:18:56;24.00;99.90
11963;DHT22;62678;52.130;5.584;2023-08-21T09:21:24;23.90;99.90
11963;DHT22;62678;52.130;5.584;2023-08-21T09:23:57;24.00;99.90
11963;DHT22;62678;52.130;5.584;2023-08-21T09:26:24;23.80;99.90
11963;DHT22;62678;52.130;5.584;2023-08-21T09:28:52;23.90;99.90
11963;DHT22;62678;52.130;5.584;2023-08-21T09:31:22;23.90;99.90
11963;DHT22;62678;52.130;5.584;2023-08-21T09:33:57;23.90;99.90
11963;DHT22;62678;52.130;5.584;2023-08-21T09:36:25;23.90;99.90
11963;DHT22;62678;52.130;5.584;2023-08-21T09:38:52;23.90;99.90
11963;DHT22;62678;52.130;5.584;2023-08-21T09:41:22;23.90;99.90
11963;DHT22;62678;52.130;5.584;2023-08-21T09:43:50;24.10;99.90
11963;DHT22;62678;52.130;5.584;2023-08-21T09:46:21;24.20;99.90
11963;DHT22;62678;52.130;5.584;2023-08-21T09:48:51;24.20;99.90
11963;DHT22;62678;52.130;5.584;2023-08-21T09:51:21;24.30;99.90
11963;DHT22;62678;52.130;5.584;2023-08-21T09:53:48;24.60;99.90
11963;DHT22;62678;52.130;5.584;2023-08-21T09:56:18;24.70;99.90
11963;DHT22;62678;52.130;5.584;2023-08-21T09:58:47;24.50;99.90
11963;DHT22;62678;52.130;5.584;2023-08-21T10:01:16;24.60;99.90
11963;DHT22;62678;52.130;5.584;2023-08-21T10:03:44;24.70;99.90
11963;DHT22;62678;52.130;5.584;2023-08-21T10:06:16;24.60;99.90
11963;DHT22;62678;52.130;5.584;2023-08-21T10:08:46;24.70;99.90
11963;DHT22;62678;52.130;5.584;2023-08-21T10:11:19;24.80;99.90
11963;DHT22;62678;52.130;5.584;2023-08-21T10:13:46;24.90;99.90
11963;DHT22;62678;52.130;5.584;2023-08-21T10:16:16;24.90;99.90
11963;DHT22;62678;52.130;5.584;2023-08-21T10:18:44;25.00;99.90
11963;DHT22;62678;52.130;5.584;2023-08-21T10:21:13;25.00;99.90
11963;DHT22;62678;52.130;5.584;2023-08-21T10:23:41;25.10;99.90
11963;DHT22;62678;52.130;5.584;2023-08-21T10:26:10;25.00;99.90
11963;DHT22;62678;52.130;5.584;2023-08-21T10:28:48;25.00;99.90
11963;DHT22;62678;52.130;5.584;2023-08-21T10:31:30;25.00;99.90
11963;DHT22;62678;52.130;5.584;2023-08-21T10:33:58;25.00;99.90
11963;DHT22;62678;52.130;5.584;2023-08-21T10:39:28;24.90;99.90
11963;DHT22;62678;52.130;5.584;2023-08-21T10:42:01;25.00;99.90
11963;DHT22;62678;52.130;5.584;2023-08-21T10:44:47;25.20;99.90
11963;DHT22;62678;52.130;5.584;2023-08-21T10:47:19;25.10;99.90
11963;DHT22;62678;52.130;5.584;2023-08-21T10:49:49;25.00;99.90
11963;DHT22;62678;52.130;5.584;2023-08-21T10:52:20;25.00;99.90
11963;DHT22;62678;52.130;5.584;2023-08-21T10:54:50;25.20;99.90
11963;DHT22;62678;52.130;5.584;2023-08-21T10:57:19;25.20;99.90
11963;DHT22;62678;52.130;5.584;2023-08-21T10:59:53;25.30;99.90
11963;DHT22;62678;52.130;5.584;2023-08-21T11:02:21;25.30;99.90
11963;DHT22;62678;52.130;5.584;2023-08-21T11:04:49;25.50;99.90
11963;DHT22;62678;52.130;5.584;2023-08-21T11:07:16;25.70;99.90
11963;DHT22;62678;52.130;5.584;2023-08-21T11:09:43;25.70;99.90
11963;DHT22;62678;52.130;5.584;2023-08-21T11:12:12;25.70;99.90
11963;DHT22;62678;52.130;5.584;2023-08-21T11:14:41;25.60;99.90
11963;DHT22;62678;52.130;5.584;2023-08-21T11:17:09;25.70;99.90
11963;DHT22;62678;52.130;5.584;2023-08-21T11:19:36;26.00;99.90
11963;DHT22;62678;52.130;5.584;2023-08-21T11:22:04;26.00;99.90
11963;DHT22;62678;52.130;5.584;2023-08-21T11:24:42;26.00;99.90
11963;DHT22;62678;52.130;5.584;2023-08-21T11:27:10;26.20;99.90
11963;DHT22;62678;52.130;5.584;2023-08-21T11:29:38;25.80;99.90
11963;DHT22;62678;52.130;5.584;2023-08-21T11:32:13;25.50;99.90
11963;DHT22;62678;52.130;5.584;2023-08-21T11:34:41;25.70;99.90
11963;DHT22;62678;52.130;5.584;2023-08-21T11:37:10;25.80;99.90
11963;DHT22;62678;52.130;5.584;2023-08-21T11:39:44;26.00;99.90
11963;DHT22;62678;52.130;5.584;2023-08-21T11:42:12;26.10;99.90
11963;DHT22;62678;52.130;5.584;2023-08-21T11:44:41;26.10;99.90
11963;DHT22;62678;52.130;5.584;2023-08-21T11:47:09;26.20;99.90
11963;DHT22;62678;52.130;5.584;2023-08-21T11:49:37;26.30;99.90
11963;DHT22;62678;52.130;5.584;2023-08-21T11:52:04;26.40;99.90
11963;DHT22;62678;52.130;5.584;2023-08-21T11:54:35;26.10;99.90
11963;DHT22;62678;52.130;5.584;2023-08-21T11:57:06;26.00;99.90
11963;DHT22;62678;52.130;5.584;2023-08-21T11:59:34;26.10;99.90
11963;DHT22;62678;52.130;5.584;2023-08-21T12:02:05;26.10;99.90
11963;DHT22;62678;52.130;5.584;2023-08-21T12:04:36;26.10;99.90
11963;DHT22;62678;52.130;5.584;2023-08-21T12:07:03;26.10;99.90
11963;DHT22;62678;52.130;5.584;2023-08-21T12:09:30;26.10;99.90
11963;DHT22;62678;52.130;5.584;2023-08-21T12:11:57;26.40;99.90
11963;DHT22;62678;52.130;5.584;2023-08-21T12:14:24;26.40;99.90
11963;DHT22;62678;52.130;5.584;2023-08-21T12:16:51;26.30;99.90
11963;DHT22;62678;52.130;5.584;2023-08-21T12:19:18;26.20;99.90
11963;DHT22;62678;52.130;5.584;2023-08-21T12:21:46;26.30;99.90
11963;DHT22;62678;52.130;5.584;2023-08-21T12:24:13;26.30;99.90
11963;DHT22;62678;52.130;5.584;2023-08-21T12:26:41;26.20;99.90
11963;DHT22;62678;52.130;5.584;2023-08-21T12:29:08;26.60;99.90
11963;DHT22;62678;52.130;5.584;2023-08-21T12:31:35;26.70;99.90
11963;DHT22;62678;52.130;5.584;2023-08-21T12:34:02;26.30;99.90
11963;DHT22;62678;52.130;5.584;2023-08-21T12:36:30;26.20;99.90
11963;DHT22;62678;52.130;5.584;2023-08-21T12:38:58;26.30;99.90
11963;DHT22;62678;52.130;5.584;2023-08-21T12:41:25;26.40;99.90
11963;DHT22;62678;52.130;5.584;2023-08-21T12:43:52;26.40;99.90
11963;DHT22;62678;52.130;5.584;2023-08-21T12:46:20;26.50;99.90
11963;DHT22;62678;52.130;5.584;2023-08-21T12:48:47;26.70;99.90
11963;DHT22;62678;52.130;5.584;2023-08-21T12:51:14;26.90;99.90
11963;DHT22;62678;52.130;5.584;2023-08-21T12:53:41;27.10;99.90
11963;DHT22;62678;52.130;5.584;2023-08-21T12:56:10;27.10;99.90
11963;DHT22;62678;52.130;5.584;2023-08-21T12:58:37;27.30;99.90
11963;DHT22;62678;52.130;5.584;2023-08-21T13:01:04;27.60;99.90
11963;DHT22;62678;52.130;5.584;2023-08-21T13:03:32;27.60;99.90
11963;DHT22;62678;52.130;5.584;2023-08-21T13:05:59;27.60;99.90
11963;DHT22;62678;52.130;5.584;2023-08-21T13:08:26;27.60;99.90
11963;DHT22;62678;52.130;5.584;2023-08-21T13:10:53;27.60;99.90
11963;DHT22;62678;52.130;5.584;2023-08-21T13:13:22;27.70;99.90
11963;DHT22;62678;52.130;5.584;2023-08-21T13:15:49;27.80;99.90
11963;DHT22;62678;52.130;5.584;2023-08-21T13:18:16;28.00;99.90
11963;DHT22;62678;52.130;5.584;2023-08-21T13:20:43;28.20;99.90
11963;DHT22;62678;52.130;5.584;2023-08-21T13:23:11;28.30;99.90
11963;DHT22;62678;52.130;5.584;2023-08-21T13:25:39;27.90;99.90
11963;DHT22;62678;52.130;5.584;2023-08-21T13:28:05;27.70;99.90
11963;DHT22;62678;52.130;5.584;2023-08-21T13:30:34;27.50;99.90
11963;DHT22;62678;52.130;5.584;2023-08-21T13:33:01;27.30;99.90
11963;DHT22;62678;52.130;5.584;2023-08-21T13:35:29;27.20;99.90
11963;DHT22;62678;52.130;5.584;2023-08-21T13:37:56;27.40;99.90
11963;DHT22;62678;52.130;5.584;2023-08-21T13:40:24;27.60;99.90
11963;DHT22;62678;52.130;5.584;2023-08-21T13:42:51;27.60;99.90
11963;DHT22;62678;52.130;5.584;2023-08-21T13:45:19;27.30;99.90
11963;DHT22;62678;52.130;5.584;2023-08-21T13:47:48;26.90;99.90
11963;DHT22;62678;52.130;5.584;2023-08-21T13:50:17;27.00;99.90
11963;DHT22;62678;52.130;5.584;2023-08-21T13:52:46;27.20;99.90
11963;DHT22;62678;52.130;5.584;2023-08-21T13:55:13;27.60;99.90
11963;DHT22;62678;52.130;5.584;2023-08-21T13:57:41;27.70;99.90
11963;DHT22;62678;52.130;5.584;2023-08-21T14:00:09;27.80;99.90
11963;DHT22;62678;52.130;5.584;2023-08-21T14:02:39;27.90;99.90
11963;DHT22;62678;52.130;5.584;2023-08-21T14:05:08;28.00;99.90
11963;DHT22;62678;52.130;5.584;2023-08-21T14:07:36;28.10;99.90
11963;DHT22;62678;52.130;5.584;2023-08-21T14:10:04;28.30;99.90
11963;DHT22;62678;52.130;5.584;2023-08-21T14:12:31;28.20;99.90
11963;DHT22;62678;52.130;5.584;2023-08-21T14:14:59;28.30;99.90
11963;DHT22;62678;52.130;5.584;2023-08-21T14:17:27;28.50;99.90
11963;DHT22;62678;52.130;5.584;2023-08-21T14:19:54;28.70;99.90
11963;DHT22;62678;52.130;5.584;2023-08-21T14:22:25;28.80;99.90
11963;DHT22;62678;52.130;5.584;2023-08-21T14:24:52;29.10;99.90
11963;DHT22;62678;52.130;5.584;2023-08-21T14:27:19;29.20;99.90
11963;DHT22;62678;52.130;5.584;2023-08-21T14:29:46;28.90;99.90
11963;DHT22;62678;52.130;5.584;2023-08-21T14:32:13;28.80;99.90
11963;DHT22;62678;52.130;5.584;2023-08-21T14:34:40;28.30;99.90
11963;DHT22;62678;52.130;5.584;2023-08-21T14:37:07;28.20;99.90
11963;DHT22;62678;52.130;5.584;2023-08-21T14:39:38;28.20;99.90
11963;DHT22;62678;52.130;5.584;2023-08-21T14:42:05;28.10;99.90
11963;DHT22;62678;52.130;5.584;2023-08-21T14:44:32;28.00;99.90
11963;DHT22;62678;52.130;5.584;2023-08-21T14:46:59;28.20;99.90
11963;DHT22;62678;52.130;5.584;2023-08-21T14:49:26;28.50;99.90
11963;DHT22;62678;52.130;5.584;2023-08-21T14:51:54;28.90;99.90
11963;DHT22;62678;52.130;5.584;2023-08-21T14:54:21;29.00;99.90
11963;DHT22;62678;52.130;5.584;2023-08-21T14:56:49;29.30;99.90
11963;DHT22;62678;52.130;5.584;2023-08-21T14:59:16;29.50;99.90
11963;DHT22;62678;52.130;5.584;2023-08-21T15:01:43;30.00;99.90
11963;DHT22;62678;52.130;5.584;2023-08-21T15:04:10;30.30;99.90
11963;DHT22;62678;52.130;5.584;2023-08-21T15:06:38;30.00;99.90
11963;DHT22;62678;52.130;5.584;2023-08-21T15:09:06;30.30;99.90
11963;DHT22;62678;52.130;5.584;2023-08-21T15:11:33;30.60;99.90
11963;DHT22;62678;52.130;5.584;2023-08-21T15:14:03;30.90;99.90
11963;DHT22;62678;52.130;5.584;2023-08-21T15:16:30;31.60;99.90
11963;DHT22;62678;52.130;5.584;2023-08-21T15:18:57;32.00;99.90
11963;DHT22;62678;52.130;5.584;2023-08-21T15:21:25;32.30;99.90
11963;DHT22;62678;52.130;5.584;2023-08-21T15:23:52;31.70;99.90
11963;DHT22;62678;52.130;5.584;2023-08-21T15:26:19;31.80;99.90
11963;DHT22;62678;52.130;5.584;2023-08-21T15:28:46;32.00;99.90
11963;DHT22;62678;52.130;5.584;2023-08-21T15:31:15;32.30;99.90
11963;DHT22;62678;52.130;5.584;2023-08-21T15:33:42;32.60;99.90
11963;DHT22;62678;52.130;5.584;2023-08-21T15:36:09;32.60;99.90
11963;DHT22;62678;52.130;5.584;2023-08-21T15:38:36;32.90;99.90